Terminal Aerodrome Forecast
Issued by NWS Indianapolis, IN

Home | Current Version | Previous Version | Text Only | Print | Product List | Glossary On
Versions: 1 2 3 4 5 6 7 8 9 10 11 12 13 14 15 16 17 18 19 20 21 22 23 24 25 26
000
FTUS43 KIND 290500
TAFIND
TAF
KIND 290520Z 2906/3012 10006KT P6SM BKN250
     FM291500 16008KT P6SM FEW040 SCT120 BKN250
     FM291800 17008KT P6SM SCT040 SCT120 BKN200=

USA.gov is the U.S. government's official web portal to all federal, state and local government web resources and services.